CYFC

Fredericton Airport

Fredericton, New Brunswick, Canada
METAR CYFC 240200Z AUTO 05006KT 9SM OVC012 04/03 A3003 RMK SLP170
Observed Flight Rules
May-24 @ 02:00 UTC (24 minutes ago) Marginal Visual Flight Rules
Wind Visibility Clouds
50° at 6 knots 9 miles
  • Overcast at 1,200' AGL
Temperatures Readings
Current 4°C / 39°F
Dewpoint 3°C / 37°F
Humidity 93%
Altimeter 30.03" Hg
Pressure 1017 hPa
Elevation 20
METAR CYFC 240200Z AUTO 05006KT 9SM OVC012 04/03 A3003 RMK SLP170
Observed Flight Rules
May-24 @ 02:00 UTC
(24 minutes ago)
MVFR
Wind Visibility
50° at 6 knots 9 miles
Clouds
  • Overcast at 1,200' AGL
Temperature Dewpoint
4°C / 39°F 3°C / 37°F
Humidity Altimeter Pressure
93% 30.03" Hg 1017 hPa